Terminal Aerodrome Forecast
Issued by NWS

Current Version | Previous Version | Text Only | Print | Product List | Glossary Off
Versions: 1 2 3 4 5 6 7 8 9 10 11 12 13 14 15 16 17 18 19 20 21

216
FTUS41 KILN 212341 AAA
TAFLUK
TAF AMD
KLUK 212341Z 2200/2224 26006KT P6SM OVC150
     FM220400 32009G16KT P6SM VCSH OVC060
     FM220800 33006KT P6SM SCT050
     FM221300 33007KT P6SM FEW250=

USA.gov is the U.S. government's official web portal to all federal, state and local government web resources and services.